createdAt,value
2018-07-11T00:00:50.694Z,0.00
2018-07-11T00:01:50.015Z,0.00
2018-07-11T00:02:50.025Z,0.00
2018-07-11T00:03:49.984Z,0.00
2018-07-11T00:04:49.960Z,0.00
2018-07-11T00:05:49.964Z,0.00
2018-07-11T00:06:49.958Z,0.00
2018-07-11T00:07:49.950Z,0.00
2018-07-11T00:08:49.913Z,0.00
2018-07-11T00:09:49.903Z,0.00
2018-07-11T00:10:49.888Z,0.00
2018-07-11T00:11:49.879Z,0.00
2018-07-11T00:12:49.906Z,0.00
2018-07-11T00:13:49.877Z,0.00
2018-07-11T00:14:49.882Z,0.00
2018-07-11T00:15:49.841Z,0.00
2018-07-11T00:16:49.832Z,0.00
2018-07-11T00:17:49.824Z,0.00
2018-07-11T00:18:49.831Z,0.00
2018-07-11T00:19:49.843Z,0.00
2018-07-11T00:20:49.780Z,0.00
2018-07-11T00:21:49.796Z,0.00
2018-07-11T00:22:49.810Z,0.00
2018-07-11T00:23:49.750Z,0.00
2018-07-11T00:24:49.753Z,0.00
2018-07-11T00:25:49.729Z,0.00
2018-07-11T00:26:49.740Z,0.00
2018-07-11T00:27:49.710Z,0.00
2018-07-11T00:28:49.699Z,0.00
2018-07-11T00:29:49.687Z,0.00
2018-07-11T00:30:49.674Z,0.00
2018-07-11T00:31:49.663Z,0.00
2018-07-11T00:32:49.677Z,0.00
2018-07-11T00:33:49.679Z,0.00
2018-07-11T00:34:49.665Z,0.00
2018-07-11T00:35:49.621Z,0.00
2018-07-11T00:36:49.621Z,0.00
2018-07-11T00:37:49.600Z,0.00
2018-07-11T00:38:49.617Z,0.00
2018-07-11T00:39:49.577Z,0.00
2018-07-11T00:40:49.573Z,0.00
2018-07-11T00:41:49.551Z,0.00
2018-07-11T00:42:49.544Z,0.00
2018-07-11T00:43:49.555Z,0.00
2018-07-11T00:44:49.518Z,0.00
2018-07-11T00:45:49.526Z,0.00
2018-07-11T00:46:49.503Z,0.00
2018-07-11T00:47:49.497Z,0.00
2018-07-11T00:48:49.519Z,0.00
2018-07-11T00:49:49.468Z,0.00
2018-07-11T00:50:49.450Z,0.00
2018-07-11T00:51:49.451Z,0.00
2018-07-11T00:52:49.436Z,0.00
2018-07-11T00:53:49.448Z,0.00
2018-07-11T00:54:49.421Z,0.00
2018-07-11T00:55:49.403Z,0.00
2018-07-11T00:56:49.390Z,0.00
2018-07-11T00:57:49.384Z,0.00
2018-07-11T00:58:49.394Z,0.00
2018-07-11T00:59:49.361Z,0.00
2018-07-11T01:00:49.366Z,0.00
2018-07-11T01:01:49.334Z,0.00
2018-07-11T01:02:49.320Z,0.00
2018-07-11T01:03:49.357Z,0.00
2018-07-11T01:04:49.307Z,0.00
2018-07-11T01:05:49.292Z,0.00
2018-07-11T01:06:49.287Z,0.00
2018-07-11T01:07:49.292Z,0.00
2018-07-11T01:08:49.333Z,0.00
2018-07-11T01:09:49.249Z,0.00
2018-07-11T01:10:49.238Z,0.00
2018-07-11T01:11:49.236Z,0.00
2018-07-11T01:12:49.217Z,0.00
2018-07-11T01:13:49.235Z,0.00
2018-07-11T01:14:49.199Z,0.00
2018-07-11T01:15:49.183Z,0.00
2018-07-11T01:16:49.174Z,0.00
2018-07-11T01:17:49.875Z,0.00
2018-07-11T01:18:49.155Z,0.00
2018-07-11T01:19:49.138Z,0.00
2018-07-11T01:20:49.142Z,0.00
2018-07-11T01:21:49.119Z,0.00
2018-07-11T01:22:49.115Z,0.00
2018-07-11T01:23:49.099Z,0.00
2018-07-11T01:24:49.106Z,0.00
2018-07-11T01:25:49.080Z,0.00
2018-07-11T01:26:49.061Z,0.00
2018-07-11T01:27:49.113Z,0.00
2018-07-11T01:28:49.106Z,0.00
2018-07-11T01:29:49.119Z,0.00
2018-07-11T01:30:49.015Z,0.00
2018-07-11T01:31:49.007Z,0.00
2018-07-11T01:32:48.999Z,0.00
2018-07-11T01:33:49.000Z,0.00
2018-07-11T01:34:49.026Z,0.00
2018-07-11T01:35:48.973Z,0.00
2018-07-11T01:36:48.961Z,0.00
2018-07-11T01:37:48.955Z,0.00
2018-07-11T01:38:48.935Z,0.00
2018-07-11T01:39:48.925Z,0.00
2018-07-11T01:40:48.924Z,0.00
2018-07-11T01:41:48.905Z,0.00
2018-07-11T01:42:48.937Z,0.00
2018-07-11T01:43:48.873Z,0.00
2018-07-11T01:44:48.869Z,0.00
2018-07-11T01:45:48.917Z,0.00
2018-07-11T01:46:48.882Z,0.00
2018-07-11T01:47:48.836Z,0.00
2018-07-11T01:48:48.826Z,0.00
2018-07-11T01:49:48.817Z,0.00
2018-07-11T01:50:48.823Z,0.00
2018-07-11T01:51:48.792Z,0.00
2018-07-11T01:52:48.800Z,0.00
2018-07-11T01:53:48.774Z,0.00
2018-07-11T01:54:48.809Z,0.00
2018-07-11T01:55:48.771Z,0.00
2018-07-11T01:56:48.744Z,0.00
2018-07-11T01:57:48.732Z,0.00
2018-07-11T01:58:48.723Z,0.00
2018-07-11T01:59:48.831Z,0.00
2018-07-11T02:00:48.740Z,0.00
2018-07-11T02:01:48.680Z,0.00
2018-07-11T02:02:48.673Z,0.00
2018-07-11T02:03:48.654Z,0.00
2018-07-11T02:04:48.664Z,0.00
2018-07-11T02:05:48.668Z,0.00
2018-07-11T02:06:48.635Z,0.00
2018-07-11T02:07:48.627Z,0.00
2018-07-11T02:08:48.629Z,0.00
2018-07-11T02:09:48.591Z,0.00
2018-07-11T02:10:48.583Z,0.00
2018-07-11T02:11:48.581Z,0.00
2018-07-11T02:12:48.561Z,0.00
2018-07-11T02:13:48.562Z,0.00
2018-07-11T02:14:48.546Z,0.00
2018-07-11T02:15:48.550Z,0.00
2018-07-11T02:16:48.559Z,0.00
2018-07-11T02:17:48.526Z,0.00
2018-07-11T02:18:48.544Z,0.00
2018-07-11T02:19:48.491Z,0.00
2018-07-11T02:20:48.477Z,0.00
2018-07-11T02:21:48.476Z,0.00
2018-07-11T02:22:48.455Z,0.00
2018-07-11T02:23:48.472Z,0.00
2018-07-11T02:24:48.428Z,0.00
2018-07-11T02:25:48.430Z,0.00
2018-07-11T02:26:48.414Z,0.00
2018-07-11T02:27:48.403Z,0.00
2018-07-11T02:28:48.398Z,0.00
2018-07-11T02:29:48.383Z,0.00
2018-07-11T02:30:48.419Z,0.00
2018-07-11T02:31:48.373Z,0.00
2018-07-11T02:32:48.378Z,0.00
2018-07-11T02:33:48.338Z,0.00
2018-07-11T02:34:48.336Z,0.00
2018-07-11T02:35:48.312Z,0.00
2018-07-11T02:36:48.305Z,0.00
2018-07-11T02:37:48.298Z,0.00
2018-07-11T02:38:48.299Z,0.00
2018-07-11T02:39:48.313Z,0.00
2018-07-11T02:40:48.310Z,0.00
2018-07-11T02:41:48.271Z,0.00
2018-07-11T02:42:48.271Z,0.00
2018-07-11T02:43:48.236Z,0.00
2018-07-11T02:44:48.216Z,0.00
2018-07-11T02:45:48.210Z,0.00
2018-07-11T02:46:48.197Z,0.00
2018-07-11T02:47:48.236Z,0.00
2018-07-11T02:48:48.178Z,0.00
2018-07-11T02:49:48.167Z,0.00
2018-07-11T02:50:48.167Z,0.00
2018-07-11T02:51:48.170Z,0.00
2018-07-11T02:52:48.183Z,0.00
2018-07-11T02:53:48.164Z,0.00
2018-07-11T02:54:48.136Z,0.00
2018-07-11T02:55:48.103Z,0.00
2018-07-11T02:56:48.091Z,0.00
2018-07-11T02:57:48.102Z,0.00
2018-07-11T02:58:48.120Z,0.00
2018-07-11T02:59:48.079Z,0.00
2018-07-11T03:00:48.055Z,0.00
2018-07-11T03:01:48.068Z,0.00
2018-07-11T03:02:48.051Z,0.00
2018-07-11T03:03:48.017Z,0.00
2018-07-11T03:04:48.006Z,0.00
2018-07-11T03:05:48.049Z,0.00
2018-07-11T03:06:47.988Z,0.00
2018-07-11T03:07:47.976Z,0.00
2018-07-11T03:08:47.989Z,0.00
2018-07-11T03:09:47.960Z,0.00
2018-07-11T03:10:47.948Z,0.00
2018-07-11T03:11:47.954Z,0.00
2018-07-11T03:12:47.994Z,0.00
2018-07-11T03:13:47.902Z,0.00
2018-07-11T03:14:47.896Z,0.00
2018-07-11T03:15:47.889Z,0.00
2018-07-11T03:16:47.889Z,0.00
2018-07-11T03:17:47.906Z,0.00
2018-07-11T03:18:47.867Z,0.00
2018-07-11T03:19:47.845Z,0.00
2018-07-11T03:20:47.839Z,0.00
2018-07-11T03:21:47.824Z,0.00
2018-07-11T03:22:47.835Z,5.62
2018-07-11T03:23:47.843Z,5.62
2018-07-11T03:24:47.793Z,5.62
2018-07-11T03:25:47.780Z,5.62
2018-07-11T03:26:47.785Z,5.62
2018-07-11T03:27:47.801Z,5.62
2018-07-11T03:28:47.742Z,5.62
2018-07-11T03:29:47.741Z,11.25
2018-07-11T03:30:47.727Z,11.25
2018-07-11T03:31:47.736Z,11.25
2018-07-11T03:32:47.784Z,16.88
2018-07-11T03:33:47.710Z,16.88
2018-07-11T03:34:47.680Z,16.88
2018-07-11T03:35:47.675Z,16.88
2018-07-11T03:36:47.679Z,16.88
2018-07-11T03:37:47.663Z,16.88
2018-07-11T03:38:47.660Z,22.50
2018-07-11T03:39:47.635Z,22.50
2018-07-11T03:40:47.615Z,22.50
2018-07-11T03:41:47.626Z,22.50
2018-07-11T03:42:47.598Z,22.50
2018-07-11T03:43:47.648Z,22.50
2018-07-11T03:44:47.578Z,22.50
2018-07-11T03:45:47.598Z,28.12
2018-07-11T03:46:47.610Z,28.12
2018-07-11T03:47:47.541Z,28.12
2018-07-11T03:48:47.589Z,28.12
2018-07-11T03:49:47.521Z,28.12
2018-07-11T03:50:47.516Z,33.75
2018-07-11T03:51:47.498Z,33.75
2018-07-11T03:52:47.494Z,33.75
2018-07-11T03:53:47.529Z,33.75
2018-07-11T03:54:47.472Z,33.75
2018-07-11T03:55:47.460Z,33.75
2018-07-11T03:56:47.462Z,33.75
2018-07-11T03:57:47.468Z,33.75
2018-07-11T03:58:47.423Z,33.75
2018-07-11T03:59:47.432Z,33.75
2018-07-11T04:00:47.409Z,33.75
2018-07-11T04:01:47.433Z,39.38
2018-07-11T04:02:47.404Z,39.38
2018-07-11T04:03:47.400Z,39.38
2018-07-11T04:04:47.417Z,45.00
2018-07-11T04:05:47.343Z,45.00
2018-07-11T04:06:47.337Z,45.00
2018-07-11T04:07:47.331Z,45.00
2018-07-11T04:08:47.319Z,45.00
2018-07-11T04:09:47.296Z,45.00
2018-07-11T04:10:47.304Z,45.00
2018-07-11T04:11:47.276Z,50.62
2018-07-11T04:12:47.265Z,50.62
2018-07-11T04:13:47.369Z,50.62
2018-07-11T04:14:47.312Z,50.62
2018-07-11T04:15:47.305Z,56.25
2018-07-11T04:16:47.228Z,61.88
2018-07-11T04:17:47.209Z,67.50
2018-07-11T04:18:47.210Z,67.50
2018-07-11T04:19:47.190Z,73.12
2018-07-11T04:20:47.213Z,73.12
2018-07-11T04:21:47.173Z,78.75
2018-07-11T04:22:47.207Z,78.75
2018-07-11T04:23:47.167Z,78.75
2018-07-11T04:24:47.145Z,84.38
2018-07-11T04:25:47.131Z,84.38
2018-07-11T04:26:47.118Z,84.38
2018-07-11T04:27:47.118Z,84.38
2018-07-11T04:28:47.103Z,90.00
2018-07-11T04:29:47.091Z,90.00
2018-07-11T04:30:47.105Z,95.62
2018-07-11T04:31:47.067Z,95.62
2018-07-11T04:32:47.047Z,101.25
2018-07-11T04:33:47.068Z,106.88
2018-07-11T04:34:47.027Z,106.88
2018-07-11T04:35:47.062Z,112.50
2018-07-11T04:36:47.013Z,118.12
2018-07-11T04:37:46.998Z,123.75
2018-07-11T04:38:47.011Z,129.38
2018-07-11T04:39:46.986Z,129.38
2018-07-11T04:40:46.971Z,135.00
2018-07-11T04:41:46.967Z,135.00
2018-07-11T04:42:46.939Z,135.00
2018-07-11T04:43:46.933Z,135.00
2018-07-11T04:44:46.920Z,140.62
2018-07-11T04:45:46.965Z,140.62
2018-07-11T04:46:46.904Z,140.62
2018-07-11T04:47:46.892Z,146.25
2018-07-11T04:48:46.894Z,146.25
2018-07-11T04:49:46.875Z,146.25
2018-07-11T04:50:46.865Z,146.25
2018-07-11T04:51:46.886Z,151.88
2018-07-11T04:52:46.904Z,151.88
2018-07-11T04:53:46.828Z,146.25
2018-07-11T04:54:46.821Z,151.88
2018-07-11T04:55:46.807Z,151.88
2018-07-11T04:56:46.818Z,151.88
2018-07-11T04:57:46.789Z,157.50
2018-07-11T04:58:46.825Z,157.50
2018-07-11T04:59:46.780Z,163.12
2018-07-11T05:00:46.768Z,168.75
2018-07-11T05:01:46.924Z,174.38
2018-07-11T05:02:46.726Z,180.00
2018-07-11T05:03:46.715Z,185.62
2018-07-11T05:04:46.769Z,191.25
2018-07-11T05:05:46.720Z,196.88
2018-07-11T05:06:46.747Z,213.75
2018-07-11T05:07:46.688Z,230.62
2018-07-11T05:08:46.665Z,258.75
2018-07-11T05:09:46.651Z,281.25
2018-07-11T05:10:46.752Z,292.50
2018-07-11T05:11:46.662Z,298.12
2018-07-11T05:12:46.622Z,292.50
2018-07-11T05:13:46.609Z,281.25
2018-07-11T05:14:46.603Z,270.00
2018-07-11T05:15:46.590Z,253.12
2018-07-11T05:16:46.573Z,236.25
2018-07-11T05:17:46.575Z,225.00
2018-07-11T05:18:46.562Z,213.75
2018-07-11T05:19:46.557Z,213.75
2018-07-11T05:20:46.541Z,208.12
2018-07-11T05:21:46.519Z,202.50
2018-07-11T05:22:46.523Z,202.50
2018-07-11T05:23:46.563Z,202.50
2018-07-11T05:24:46.501Z,202.50
2018-07-11T05:25:46.544Z,202.50
2018-07-11T05:26:46.472Z,202.50
2018-07-11T05:27:47.055Z,202.50
2018-07-11T05:28:46.444Z,202.50
2018-07-11T05:29:46.448Z,208.12
2018-07-11T05:30:46.424Z,208.12
2018-07-11T05:31:46.425Z,213.75
2018-07-11T05:32:46.425Z,219.38
2018-07-11T05:33:46.484Z,219.38
2018-07-11T05:34:46.450Z,219.38
2018-07-11T05:35:46.419Z,225.00
2018-07-11T05:36:46.382Z,230.62
2018-07-11T05:37:47.377Z,230.62
2018-07-11T05:38:46.409Z,236.25
2018-07-11T05:39:46.326Z,247.50
2018-07-11T05:40:46.553Z,253.12
2018-07-11T05:41:46.300Z,258.75
2018-07-11T05:42:46.333Z,264.38
2018-07-11T05:43:46.287Z,264.38
2018-07-11T05:44:46.293Z,270.00
2018-07-11T05:45:46.261Z,270.00
2018-07-11T05:46:46.256Z,264.38
2018-07-11T05:47:46.239Z,258.75
2018-07-11T05:48:46.259Z,253.12
2018-07-11T05:49:46.240Z,247.50
2018-07-11T05:50:46.216Z,241.88
2018-07-11T05:51:46.201Z,241.88
2018-07-11T05:52:46.195Z,236.25
2018-07-11T05:53:46.211Z,241.88
2018-07-11T05:54:46.214Z,241.88
2018-07-11T05:55:46.182Z,241.88
2018-07-11T05:56:46.146Z,247.50
2018-07-11T05:57:46.177Z,247.50
2018-07-11T05:58:46.154Z,247.50
2018-07-11T05:59:46.126Z,247.50
2018-07-11T06:00:46.100Z,247.50
2018-07-11T06:01:46.092Z,253.12
2018-07-11T06:02:46.140Z,253.12
2018-07-11T06:03:46.104Z,253.12
2018-07-11T06:04:46.062Z,258.75
2018-07-11T06:05:46.055Z,258.75
2018-07-11T06:06:47.295Z,258.75
2018-07-11T06:07:46.031Z,264.38
2018-07-11T06:08:46.042Z,264.38
2018-07-11T06:09:46.033Z,264.38
2018-07-11T06:10:45.992Z,264.38
2018-07-11T06:11:45.991Z,264.38
2018-07-11T06:12:45.976Z,264.38
2018-07-11T06:13:46.056Z,264.38
2018-07-11T06:14:45.952Z,270.00
2018-07-11T06:15:45.950Z,270.00
2018-07-11T06:16:45.932Z,270.00
2018-07-11T06:17:45.925Z,270.00
2018-07-11T06:18:46.423Z,275.62
2018-07-11T06:19:45.908Z,275.62
2018-07-11T06:20:45.937Z,275.62
2018-07-11T06:21:45.879Z,275.62
2018-07-11T06:22:45.888Z,275.62
2018-07-11T06:23:45.876Z,281.25
2018-07-11T06:24:45.875Z,275.62
2018-07-11T06:25:45.867Z,281.25
2018-07-11T06:26:45.891Z,281.25
2018-07-11T06:27:45.805Z,281.25
2018-07-11T06:28:45.796Z,281.25
2018-07-11T06:29:45.811Z,281.25
2018-07-11T06:30:45.799Z,281.25
2018-07-11T06:31:45.762Z,281.25
2018-07-11T06:32:45.763Z,281.25
2018-07-11T06:33:45.765Z,286.88
2018-07-11T06:34:45.752Z,286.88
2018-07-11T06:35:45.728Z,292.50
2018-07-11T06:36:45.711Z,286.88
2018-07-11T06:37:45.715Z,286.88
2018-07-11T06:38:45.686Z,303.75
2018-07-11T06:39:45.712Z,326.25
2018-07-11T06:40:45.685Z,337.50
2018-07-11T06:41:46.181Z,365.62
2018-07-11T06:42:45.649Z,399.38
2018-07-11T06:43:45.641Z,427.50
2018-07-11T06:44:45.645Z,461.25
2018-07-11T06:45:45.612Z,489.38
2018-07-11T06:46:45.599Z,534.38
2018-07-11T06:47:45.604Z,579.38
2018-07-11T06:48:45.588Z,624.38
2018-07-11T06:49:45.597Z,652.50
2018-07-11T06:50:45.573Z,686.25
2018-07-11T06:51:45.547Z,725.62
2018-07-11T06:52:45.538Z,753.75
2018-07-11T06:53:45.542Z,765.00
2018-07-11T06:54:45.563Z,765.00
2018-07-11T06:55:45.510Z,759.38
2018-07-11T06:56:45.494Z,748.12
2018-07-11T06:57:45.499Z,731.25
2018-07-11T06:58:45.473Z,708.75
2018-07-11T06:59:45.457Z,686.25
2018-07-11T07:00:45.475Z,635.62
2018-07-11T07:01:45.466Z,579.38
2018-07-11T07:02:45.468Z,556.88
2018-07-11T07:03:45.437Z,528.75
2018-07-11T07:04:45.410Z,506.25
2018-07-11T07:05:45.415Z,472.50
2018-07-11T07:06:45.392Z,472.50
2018-07-11T07:07:45.389Z,461.25
2018-07-11T07:08:45.429Z,444.38
2018-07-11T07:09:45.404Z,438.75
2018-07-11T07:10:45.354Z,421.88
2018-07-11T07:11:45.372Z,421.88
2018-07-11T07:12:45.317Z,393.75
2018-07-11T07:13:45.309Z,371.25
2018-07-11T07:14:45.310Z,382.50
2018-07-11T07:15:45.307Z,388.12
2018-07-11T07:16:45.310Z,399.38
2018-07-11T07:17:45.263Z,427.50
2018-07-11T07:18:45.251Z,489.38
2018-07-11T07:19:45.249Z,545.62
2018-07-11T07:20:45.257Z,568.12
2018-07-11T07:21:45.220Z,551.25
2018-07-11T07:22:45.230Z,545.62
2018-07-11T07:23:45.225Z,540.00
2018-07-11T07:24:45.189Z,562.50
2018-07-11T07:25:45.181Z,618.75
2018-07-11T07:26:45.183Z,635.62
2018-07-11T07:27:45.201Z,703.12
2018-07-11T07:28:45.146Z,776.25
2018-07-11T07:29:45.134Z,843.75
2018-07-11T07:30:45.128Z,877.50
2018-07-11T07:31:45.110Z,911.25
2018-07-11T07:32:45.114Z,911.25
2018-07-11T07:33:45.108Z,905.62
2018-07-11T07:34:45.151Z,860.62
2018-07-11T07:35:45.066Z,793.12
2018-07-11T07:36:45.118Z,759.38
2018-07-11T07:37:45.076Z,759.38
2018-07-11T07:38:45.046Z,770.62
2018-07-11T07:39:45.032Z,793.12
2018-07-11T07:40:45.076Z,810.00
2018-07-11T07:41:45.021Z,821.25
2018-07-11T07:42:45.031Z,810.00
2018-07-11T07:43:45.015Z,787.50
2018-07-11T07:44:45.059Z,776.25
2018-07-11T07:45:44.977Z,781.88
2018-07-11T07:46:44.955Z,793.12
2018-07-11T07:47:44.968Z,810.00
2018-07-11T07:48:44.933Z,810.00
2018-07-11T07:49:44.939Z,804.38
2018-07-11T07:50:44.913Z,781.88
2018-07-11T07:51:44.901Z,759.38
2018-07-11T07:52:44.968Z,731.25
2018-07-11T07:53:44.886Z,720.00
2018-07-11T07:54:44.867Z,736.88
2018-07-11T07:55:44.852Z,753.75
2018-07-11T07:56:44.876Z,781.88
2018-07-11T07:57:44.857Z,815.62
2018-07-11T07:58:44.852Z,821.25
2018-07-11T07:59:44.860Z,821.25
2018-07-11T08:00:44.801Z,821.25
2018-07-11T08:01:44.789Z,815.62
2018-07-11T08:02:44.795Z,821.25
2018-07-11T08:03:44.787Z,821.25
2018-07-11T08:04:44.778Z,804.38
2018-07-11T08:05:44.787Z,787.50
2018-07-11T08:06:44.739Z,776.25
2018-07-11T08:07:44.729Z,765.00
2018-07-11T08:08:44.728Z,759.38
2018-07-11T08:09:44.705Z,753.75
2018-07-11T08:10:44.699Z,720.00
2018-07-11T08:11:44.687Z,675.00
2018-07-11T08:12:44.751Z,641.25
2018-07-11T08:13:44.693Z,630.00
2018-07-11T08:14:44.653Z,630.00
2018-07-11T08:15:44.636Z,635.62
2018-07-11T08:16:44.627Z,635.62
2018-07-11T08:17:44.623Z,635.62
2018-07-11T08:18:44.621Z,652.50
2018-07-11T08:19:44.629Z,697.50
2018-07-11T08:20:44.585Z,753.75
2018-07-11T08:21:44.572Z,793.12
2018-07-11T08:22:44.577Z,810.00
2018-07-11T08:23:44.555Z,804.38
2018-07-11T08:24:44.546Z,804.38
2018-07-11T08:25:44.537Z,793.12
2018-07-11T08:26:44.572Z,810.00
2018-07-11T08:27:44.519Z,838.12
2018-07-11T08:28:44.547Z,877.50
2018-07-11T08:29:44.495Z,933.75
2018-07-11T08:30:44.480Z,995.62
2018-07-11T08:31:44.480Z,1035.00
2018-07-11T08:32:44.455Z,1057.50
2018-07-11T08:33:44.442Z,1051.88
2018-07-11T08:34:44.513Z,1051.88
2018-07-11T08:35:44.418Z,1023.75
2018-07-11T08:36:44.416Z,973.12
2018-07-11T08:37:44.408Z,1001.25
2018-07-11T08:38:44.395Z,1091.25
2018-07-11T08:39:44.399Z,1192.50
2018-07-11T08:40:44.377Z,1209.38
2018-07-11T08:41:44.410Z,1215.00
2018-07-11T08:42:44.382Z,1215.00
2018-07-11T08:43:44.392Z,1198.12
2018-07-11T08:44:44.399Z,1153.12
2018-07-11T08:45:44.359Z,1102.50
2018-07-11T08:46:44.352Z,1068.75
2018-07-11T08:47:44.364Z,1040.62
2018-07-11T08:48:44.282Z,1040.62
2018-07-11T08:49:44.308Z,1068.75
2018-07-11T08:50:44.286Z,1125.00
2018-07-11T08:51:44.261Z,1051.88
2018-07-11T08:52:44.242Z,990.00
2018-07-11T08:53:44.236Z,939.38
2018-07-11T08:54:44.215Z,933.75
2018-07-11T08:55:44.232Z,933.75
2018-07-11T08:56:44.212Z,928.12
2018-07-11T08:57:44.185Z,956.25
2018-07-11T08:58:44.170Z,984.38
2018-07-11T08:59:44.159Z,973.12
2018-07-11T09:00:44.176Z,939.38
2018-07-11T09:01:44.142Z,877.50
2018-07-11T09:02:44.172Z,871.88
2018-07-11T09:03:44.132Z,866.25
2018-07-11T09:04:44.112Z,849.38
2018-07-11T09:05:44.095Z,832.50
2018-07-11T09:06:44.106Z,860.62
2018-07-11T09:07:44.105Z,939.38
2018-07-11T09:08:44.086Z,1023.75
2018-07-11T09:09:44.057Z,1108.12
2018-07-11T09:10:44.049Z,1215.00
2018-07-11T09:11:44.031Z,1293.75
2018-07-11T09:12:44.019Z,1271.25
2018-07-11T09:13:44.011Z,1237.50
2018-07-11T09:14:44.011Z,1186.88
2018-07-11T09:15:44.001Z,1102.50
2018-07-11T09:16:44.010Z,1074.38
2018-07-11T09:17:43.984Z,1068.75
2018-07-11T09:18:43.958Z,1096.88
2018-07-11T09:19:43.949Z,1113.75
2018-07-11T09:20:43.933Z,1141.88
2018-07-11T09:21:43.950Z,1198.12
2018-07-11T09:22:43.919Z,1288.12
2018-07-11T09:23:43.927Z,1372.50
2018-07-11T09:24:43.897Z,1400.62
2018-07-11T09:25:43.885Z,1451.25
2018-07-11T09:26:43.904Z,1406.25
2018-07-11T09:27:43.870Z,1243.12
2018-07-11T09:28:43.855Z,1158.75
2018-07-11T09:29:43.839Z,1125.00
2018-07-11T09:30:43.832Z,1113.75
2018-07-11T09:31:43.821Z,1113.75
2018-07-11T09:32:43.823Z,1113.75
2018-07-11T09:33:43.834Z,1108.12
2018-07-11T09:34:43.834Z,1141.88
2018-07-11T09:35:43.782Z,1254.38
2018-07-11T09:36:43.768Z,1417.50
2018-07-11T09:37:43.795Z,1282.50
2018-07-11T09:38:43.754Z,1321.88
2018-07-11T09:39:43.750Z,1338.75
2018-07-11T09:40:43.752Z,1265.62
2018-07-11T09:41:43.719Z,1231.88
2018-07-11T09:42:43.721Z,1282.50
2018-07-11T09:43:43.695Z,1136.25
2018-07-11T09:44:43.683Z,1175.62
2018-07-11T09:45:43.673Z,990.00
2018-07-11T09:46:43.668Z,894.38
2018-07-11T09:47:43.682Z,776.25
2018-07-11T09:48:43.642Z,838.12
2018-07-11T09:49:43.647Z,945.00
2018-07-11T09:50:43.618Z,1170.00
2018-07-11T09:51:43.605Z,1366.88
2018-07-11T09:52:43.897Z,1411.88
2018-07-11T09:53:43.654Z,1366.88
2018-07-11T09:54:44.359Z,1338.75
2018-07-11T09:55:43.626Z,1327.50
2018-07-11T09:56:43.558Z,1136.25
2018-07-11T09:57:43.573Z,1018.12
2018-07-11T09:58:43.535Z,1130.62
2018-07-11T09:59:43.532Z,1338.75
2018-07-11T10:00:43.516Z,1417.50
2018-07-11T10:01:43.515Z,1462.50
2018-07-11T10:02:44.415Z,1490.62
2018-07-11T10:03:43.490Z,1524.38
2018-07-11T10:04:43.471Z,1518.75
2018-07-11T10:05:43.467Z,1479.38
2018-07-11T10:06:43.456Z,1518.75
2018-07-11T10:07:43.445Z,1586.25
2018-07-11T10:08:43.435Z,1597.50
2018-07-11T10:09:43.419Z,1676.25
2018-07-11T10:10:43.438Z,1715.62
2018-07-11T10:11:43.397Z,1721.25
2018-07-11T10:12:43.389Z,1676.25
2018-07-11T10:13:43.387Z,1603.12
2018-07-11T10:14:43.373Z,1546.88
2018-07-11T10:15:43.362Z,1541.25
2018-07-11T10:16:43.359Z,1552.50
2018-07-11T10:17:43.374Z,1524.38
2018-07-11T10:18:43.362Z,1451.25
2018-07-11T10:19:43.342Z,1378.12
2018-07-11T10:20:43.354Z,1310.62
2018-07-11T10:21:43.341Z,1260.00
2018-07-11T10:22:43.283Z,1226.25
2018-07-11T10:23:43.293Z,1175.62
2018-07-11T10:24:43.298Z,1203.75
2018-07-11T10:25:43.273Z,1254.38
2018-07-11T10:26:43.254Z,1310.62
2018-07-11T10:27:43.237Z,1350.00
2018-07-11T10:28:43.229Z,1411.88
2018-07-11T10:29:43.222Z,1456.88
2018-07-11T10:30:43.200Z,1423.12
2018-07-11T10:31:43.199Z,1372.50
2018-07-11T10:32:43.202Z,1338.75
2018-07-11T10:33:43.217Z,1282.50
2018-07-11T10:34:43.159Z,1271.25
2018-07-11T10:35:43.150Z,1276.88
2018-07-11T10:36:43.147Z,1265.62
2018-07-11T10:37:43.135Z,1215.00
2018-07-11T10:38:43.125Z,1186.88
2018-07-11T10:39:43.108Z,1175.62
2018-07-11T10:40:43.115Z,1220.62
2018-07-11T10:41:43.091Z,1226.25
2018-07-11T10:42:43.086Z,1175.62
2018-07-11T10:43:43.097Z,1203.75
2018-07-11T10:44:43.065Z,1265.62
2018-07-11T10:45:43.046Z,1181.25
2018-07-11T10:46:43.041Z,1063.12
2018-07-11T10:47:43.028Z,916.88
2018-07-11T10:48:43.027Z,753.75
2018-07-11T10:49:43.003Z,579.38
2018-07-11T10:50:42.990Z,433.12
2018-07-11T10:51:42.981Z,320.62
2018-07-11T10:52:42.973Z,241.88
2018-07-11T10:53:43.065Z,230.62
2018-07-11T10:54:42.959Z,264.38
2018-07-11T10:55:42.965Z,286.88
2018-07-11T10:56:42.936Z,258.75
2018-07-11T10:57:43.079Z,202.50
2018-07-11T10:58:42.905Z,180.00
2018-07-11T10:59:42.899Z,168.75
2018-07-11T11:01:05.022Z,157.50
2018-07-11T11:01:42.879Z,146.25
2018-07-11T11:02:42.982Z,140.62
2018-07-11T11:03:42.878Z,151.88
2018-07-11T11:04:42.925Z,180.00
2018-07-11T11:05:42.929Z,191.25
2018-07-11T11:06:42.920Z,196.88
2018-07-11T11:07:42.820Z,196.88
2018-07-11T11:08:42.802Z,196.88
2018-07-11T11:09:42.795Z,202.50
2018-07-11T11:10:42.776Z,202.50
2018-07-11T11:11:42.777Z,202.50
2018-07-11T11:12:42.772Z,185.62
2018-07-11T11:13:42.754Z,174.38
2018-07-11T11:14:42.787Z,196.88
2018-07-11T11:15:42.732Z,303.75
2018-07-11T11:16:42.717Z,511.88
2018-07-11T11:17:42.707Z,731.25
2018-07-11T11:18:42.691Z,838.12
2018-07-11T11:19:42.752Z,776.25
2018-07-11T11:20:42.675Z,686.25
2018-07-11T11:21:42.661Z,663.75
2018-07-11T11:22:42.648Z,714.38
2018-07-11T11:23:42.637Z,838.12
2018-07-11T11:24:42.628Z,973.12
2018-07-11T11:25:42.641Z,1051.88
2018-07-11T11:26:42.630Z,1068.75
2018-07-11T11:27:42.603Z,1096.88
2018-07-11T11:28:42.588Z,1119.38
2018-07-11T11:29:42.576Z,1125.00
2018-07-11T11:30:42.564Z,1108.12
2018-07-11T11:31:42.553Z,1046.25
2018-07-11T11:32:42.546Z,973.12
2018-07-11T11:33:42.537Z,900.00
2018-07-11T11:34:42.575Z,838.12
2018-07-11T11:35:42.588Z,787.50
2018-07-11T11:36:42.504Z,714.38
2018-07-11T11:37:42.491Z,635.62
2018-07-11T11:38:42.483Z,590.62
2018-07-11T11:39:42.474Z,562.50
2018-07-11T11:40:42.479Z,523.12
2018-07-11T11:41:42.537Z,500.62
2018-07-11T11:42:42.485Z,483.75
2018-07-11T11:43:42.431Z,472.50
2018-07-11T11:44:42.414Z,461.25
2018-07-11T11:45:42.434Z,461.25
2018-07-11T11:46:42.397Z,472.50
2018-07-11T11:47:42.386Z,478.12
2018-07-11T11:48:42.374Z,472.50
2018-07-11T11:49:42.363Z,461.25
2018-07-11T11:50:42.348Z,438.75
2018-07-11T11:51:42.351Z,410.62
2018-07-11T11:52:42.364Z,393.75
2018-07-11T11:53:42.321Z,388.12
2018-07-11T11:54:42.330Z,399.38
2018-07-11T11:55:42.322Z,427.50
2018-07-11T11:56:43.179Z,489.38
2018-07-11T11:57:42.411Z,613.12
2018-07-11T11:58:42.271Z,731.25
2018-07-11T11:59:42.275Z,725.62
2018-07-11T12:00:42.244Z,613.12
2018-07-11T12:01:42.325Z,489.38
2018-07-11T12:02:42.217Z,388.12
2018-07-11T12:03:42.209Z,320.62
2018-07-11T12:04:42.203Z,270.00
2018-07-11T12:05:42.189Z,247.50
2018-07-11T12:06:42.198Z,236.25
2018-07-11T12:07:42.168Z,241.88
2018-07-11T12:08:42.157Z,241.88
2018-07-11T12:09:42.146Z,241.88
2018-07-11T12:10:42.138Z,230.62
2018-07-11T12:11:42.174Z,208.12
2018-07-11T12:12:42.115Z,185.62
2018-07-11T12:13:42.102Z,174.38
2018-07-11T12:14:42.093Z,185.62
2018-07-11T12:15:42.077Z,208.12
2018-07-11T12:16:42.079Z,236.25
2018-07-11T12:17:42.170Z,230.62
2018-07-11T12:18:42.063Z,213.75
2018-07-11T12:19:42.044Z,191.25
2018-07-11T12:20:42.029Z,185.62
2018-07-11T12:21:42.016Z,202.50
2018-07-11T12:22:42.073Z,241.88
2018-07-11T12:23:42.027Z,270.00
2018-07-11T12:24:41.986Z,258.75
2018-07-11T12:25:41.987Z,230.62
2018-07-11T12:26:41.965Z,219.38
2018-07-11T12:27:41.980Z,219.38
2018-07-11T12:28:41.943Z,219.38
2018-07-11T12:29:41.974Z,213.75
2018-07-11T12:30:41.924Z,208.12
2018-07-11T12:31:41.924Z,236.25
2018-07-11T12:32:41.909Z,270.00
2018-07-11T12:33:41.931Z,281.25
2018-07-11T12:34:41.872Z,286.88
2018-07-11T12:35:41.905Z,326.25
2018-07-11T12:36:41.860Z,388.12
2018-07-11T12:37:41.903Z,489.38
2018-07-11T12:38:41.874Z,585.00
2018-07-11T12:39:41.836Z,641.25